sensor_id;sensor_type;location;lat;lon;timestamp;pressure;altitude;pressure_sealevel;temperature;humidity
55474;BME280;65220;52.214;0.116;2024-01-06T00:02:06;100864.21;;;14.08;30.23
55474;BME280;65220;52.214;0.116;2024-01-06T00:04:32;100867.81;;;14.55;30.08
55474;BME280;65220;52.214;0.116;2024-01-06T00:06:56;100873.10;;;14.15;30.32
55474;BME280;65220;52.214;0.116;2024-01-06T00:09:21;100875.95;;;13.77;30.44
55474;BME280;65220;52.214;0.116;2024-01-06T00:11:46;100880.82;;;14.25;30.16
55474;BME280;65220;52.214;0.116;2024-01-06T00:14:12;100883.28;;;13.95;30.19
55474;BME280;65220;52.214;0.116;2024-01-06T00:16:37;100884.21;;;13.97;30.36
55474;BME280;65220;52.214;0.116;2024-01-06T00:19:02;100888.36;;;13.89;30.24
55474;BME280;65220;52.214;0.116;2024-01-06T00:21:27;100892.57;;;14.21;30.13
55474;BME280;65220;52.214;0.116;2024-01-06T00:23:52;100894.82;;;14.71;29.97
55474;BME280;65220;52.214;0.116;2024-01-06T00:26:17;100895.21;;;14.22;29.93
55474;BME280;65220;52.214;0.116;2024-01-06T00:28:43;100895.51;;;14.17;30.11
55474;BME280;65220;52.214;0.116;2024-01-06T00:31:08;100897.77;;;14.13;30.21
55474;BME280;65220;52.214;0.116;2024-01-06T00:33:33;100898.84;;;13.86;30.21
55474;BME280;65220;52.214;0.116;2024-01-06T00:35:58;100900.16;;;13.50;30.26
55474;BME280;65220;52.214;0.116;2024-01-06T00:38:23;100903.64;;;14.10;30.01
55474;BME280;65220;52.214;0.116;2024-01-06T00:40:48;100905.28;;;13.75;30.10
55474;BME280;65220;52.214;0.116;2024-01-06T00:43:14;100906.37;;;13.76;30.06
55474;BME280;65220;52.214;0.116;2024-01-06T00:45:39;100908.30;;;14.11;29.97
55474;BME280;65220;52.214;0.116;2024-01-06T00:48:05;100907.87;;;14.23;30.00
55474;BME280;65220;52.214;0.116;2024-01-06T00:50:29;100908.40;;;13.98;29.94
55474;BME280;65220;52.214;0.116;2024-01-06T00:52:54;100908.04;;;14.10;29.88
55474;BME280;65220;52.214;0.116;2024-01-06T00:55:20;100911.13;;;13.99;30.07
55474;BME280;65220;52.214;0.116;2024-01-06T00:57:46;100915.81;;;14.01;30.07
55474;BME280;65220;52.214;0.116;2024-01-06T01:00:12;100918.25;;;14.20;29.77
55474;BME280;65220;52.214;0.116;2024-01-06T01:02:36;100923.97;;;13.65;30.11
55474;BME280;65220;52.214;0.116;2024-01-06T01:05:01;100920.26;;;14.27;29.88
55474;BME280;65220;52.214;0.116;2024-01-06T01:07:26;100922.31;;;14.07;29.88
55474;BME280;65220;52.214;0.116;2024-01-06T01:09:51;100920.01;;;13.64;29.97
55474;BME280;65220;52.214;0.116;2024-01-06T01:12:16;100921.50;;;13.84;29.84
55474;BME280;65220;52.214;0.116;2024-01-06T01:14:42;100926.94;;;14.23;29.80
55474;BME280;65220;52.214;0.116;2024-01-06T01:17:07;100929.63;;;13.96;29.92
55474;BME280;65220;52.214;0.116;2024-01-06T01:19:32;100933.71;;;14.08;29.91
55474;BME280;65220;52.214;0.116;2024-01-06T01:21:57;100934.01;;;14.24;29.72
55474;BME280;65220;52.214;0.116;2024-01-06T01:24:22;100934.21;;;13.79;29.86
55474;BME280;65220;52.214;0.116;2024-01-06T01:26:47;100932.12;;;14.43;29.71
55474;BME280;65220;52.214;0.116;2024-01-06T01:29:13;100928.96;;;13.97;29.78
55474;BME280;65220;52.214;0.116;2024-01-06T01:31:38;100925.42;;;14.36;29.77
55474;BME280;65220;52.214;0.116;2024-01-06T01:34:03;100932.38;;;14.18;29.80
55474;BME280;65220;52.214;0.116;2024-01-06T01:36:28;100935.46;;;14.41;29.76
55474;BME280;65220;52.214;0.116;2024-01-06T01:38:53;100943.16;;;13.39;30.06
55474;BME280;65220;52.214;0.116;2024-01-06T01:41:18;100943.25;;;14.37;29.77
55474;BME280;65220;52.214;0.116;2024-01-06T01:43:45;100954.29;;;13.69;29.74
55474;BME280;65220;52.214;0.116;2024-01-06T01:46:09;100957.50;;;13.76;29.86
55474;BME280;65220;52.214;0.116;2024-01-06T01:48:34;100953.41;;;14.15;29.77
55474;BME280;65220;52.214;0.116;2024-01-06T01:50:59;100954.21;;;14.14;29.83
55474;BME280;65220;52.214;0.116;2024-01-06T01:53:24;100955.04;;;13.58;30.02
55474;BME280;65220;52.214;0.116;2024-01-06T01:55:50;100957.19;;;13.85;29.79
55474;BME280;65220;52.214;0.116;2024-01-06T01:58:16;100962.72;;;14.28;29.73
55474;BME280;65220;52.214;0.116;2024-01-06T02:00:40;100965.79;;;13.98;29.69
55474;BME280;65220;52.214;0.116;2024-01-06T02:03:05;100971.02;;;14.47;29.61
55474;BME280;65220;52.214;0.116;2024-01-06T02:05:30;100972.90;;;13.72;29.88
55474;BME280;65220;52.214;0.116;2024-01-06T02:07:55;100973.54;;;14.09;29.66
55474;BME280;65220;52.214;0.116;2024-01-06T02:10:20;100972.09;;;14.12;29.84
55474;BME280;65220;52.214;0.116;2024-01-06T02:12:45;100976.67;;;14.13;29.78
55474;BME280;65220;52.214;0.116;2024-01-06T02:15:11;100980.44;;;13.93;29.80
55474;BME280;65220;52.214;0.116;2024-01-06T02:17:36;100984.13;;;13.83;29.68
55474;BME280;65220;52.214;0.116;2024-01-06T02:20:01;100984.81;;;13.94;29.73
55474;BME280;65220;52.214;0.116;2024-01-06T02:22:26;100986.60;;;13.83;29.88
55474;BME280;65220;52.214;0.116;2024-01-06T02:24:51;100991.28;;;13.66;29.75
55474;BME280;65220;52.214;0.116;2024-01-06T02:27:16;100996.29;;;13.35;30.09
55474;BME280;65220;52.214;0.116;2024-01-06T02:29:42;100997.61;;;13.50;29.86
55474;BME280;65220;52.214;0.116;2024-01-06T02:32:07;100999.17;;;14.05;29.67
55474;BME280;65220;52.214;0.116;2024-01-06T02:34:32;101006.57;;;14.23;29.48
55474;BME280;65220;52.214;0.116;2024-01-06T02:36:58;101011.88;;;14.50;29.41
55474;BME280;65220;52.214;0.116;2024-01-06T02:39:23;101014.66;;;14.56;29.41
55474;BME280;65220;52.214;0.116;2024-01-06T02:41:48;101020.53;;;13.76;29.77
55474;BME280;65220;52.214;0.116;2024-01-06T02:44:13;101019.09;;;14.08;29.48
55474;BME280;65220;52.214;0.116;2024-01-06T02:46:38;101019.06;;;14.42;29.30
55474;BME280;65220;52.214;0.116;2024-01-06T02:49:03;101018.27;;;14.67;28.97
55474;BME280;65220;52.214;0.116;2024-01-06T02:51:29;101019.02;;;14.35;29.17
55474;BME280;65220;52.214;0.116;2024-01-06T02:53:54;101024.25;;;14.54;29.00
55474;BME280;65220;52.214;0.116;2024-01-06T02:56:19;101027.05;;;14.42;29.00
55474;BME280;65220;52.214;0.116;2024-01-06T02:58:44;101031.83;;;14.40;29.17
55474;BME280;65220;52.214;0.116;2024-01-06T03:01:11;101041.94;;;14.79;29.01
55474;BME280;65220;52.214;0.116;2024-01-06T03:03:34;101043.33;;;14.59;29.16
55474;BME280;65220;52.214;0.116;2024-01-06T03:06:00;101044.22;;;14.08;29.35
55474;BME280;65220;52.214;0.116;2024-01-06T03:08:25;101045.92;;;14.82;29.09
55474;BME280;65220;52.214;0.116;2024-01-06T03:10:50;101048.49;;;14.77;29.03
55474;BME280;65220;52.214;0.116;2024-01-06T03:13:15;101050.26;;;14.65;29.12
55474;BME280;65220;52.214;0.116;2024-01-06T03:15:40;101047.74;;;14.61;28.96
55474;BME280;65220;52.214;0.116;2024-01-06T03:18:05;101047.64;;;14.58;28.95
55474;BME280;65220;52.214;0.116;2024-01-06T03:20:30;101046.20;;;14.64;29.07
55474;BME280;65220;52.214;0.116;2024-01-06T03:22:56;101044.99;;;14.80;28.98
55474;BME280;65220;52.214;0.116;2024-01-06T03:25:21;101048.77;;;14.57;28.90
55474;BME280;65220;52.214;0.116;2024-01-06T03:27:46;101053.71;;;14.75;28.88
55474;BME280;65220;52.214;0.116;2024-01-06T03:30:12;101054.45;;;14.89;28.75
55474;BME280;65220;52.214;0.116;2024-01-06T03:32:36;101054.71;;;14.90;28.72
55474;BME280;65220;52.214;0.116;2024-01-06T03:35:02;101055.85;;;14.84;28.90
55474;BME280;65220;52.214;0.116;2024-01-06T03:37:27;101062.80;;;14.87;28.81
55474;BME280;65220;52.214;0.116;2024-01-06T03:39:52;101065.85;;;14.96;28.70
55474;BME280;65220;52.214;0.116;2024-01-06T03:42:17;101069.97;;;15.06;28.73
55474;BME280;65220;52.214;0.116;2024-01-06T03:44:42;101072.32;;;15.19;28.81
55474;BME280;65220;52.214;0.116;2024-01-06T03:47:07;101073.38;;;14.75;28.78
55474;BME280;65220;52.214;0.116;2024-01-06T03:49:32;101067.42;;;15.34;28.47
55474;BME280;65220;52.214;0.116;2024-01-06T03:51:58;101066.34;;;15.17;28.66
55474;BME280;65220;52.214;0.116;2024-01-06T03:54:23;101070.10;;;14.76;28.83
55474;BME280;65220;52.214;0.116;2024-01-06T03:56:48;101069.43;;;14.45;29.04
55474;BME280;65220;52.214;0.116;2024-01-06T03:59:13;101067.69;;;14.78;28.69
55474;BME280;65220;52.214;0.116;2024-01-06T04:01:38;101071.67;;;15.01;28.74
55474;BME280;65220;52.214;0.116;2024-01-06T04:04:04;101072.17;;;15.37;28.67
55474;BME280;65220;52.214;0.116;2024-01-06T04:06:29;101071.69;;;15.02;28.58
55474;BME280;65220;52.214;0.116;2024-01-06T04:08:54;101075.67;;;15.18;28.59
55474;BME280;65220;52.214;0.116;2024-01-06T04:11:19;101076.36;;;15.37;28.51
55474;BME280;65220;52.214;0.116;2024-01-06T04:13:44;101078.24;;;15.10;28.52
55474;BME280;65220;52.214;0.116;2024-01-06T04:16:09;101080.92;;;15.41;28.39
55474;BME280;65220;52.214;0.116;2024-01-06T04:18:34;101085.03;;;15.71;28.48
55474;BME280;65220;52.214;0.116;2024-01-06T04:20:59;101081.97;;;15.29;28.52
55474;BME280;65220;52.214;0.116;2024-01-06T04:23:25;101086.15;;;15.54;28.56
55474;BME280;65220;52.214;0.116;2024-01-06T04:25:51;101090.25;;;15.47;28.60
55474;BME280;65220;52.214;0.116;2024-01-06T04:28:15;101097.81;;;15.33;28.47
55474;BME280;65220;52.214;0.116;2024-01-06T04:30:40;101096.85;;;15.78;28.36
55474;BME280;65220;52.214;0.116;2024-01-06T04:33:05;101101.74;;;15.72;28.32
55474;BME280;65220;52.214;0.116;2024-01-06T04:35:30;101108.66;;;15.28;28.49
55474;BME280;65220;52.214;0.116;2024-01-06T04:37:56;101112.72;;;15.50;28.55
55474;BME280;65220;52.214;0.116;2024-01-06T04:40:21;101114.12;;;15.57;28.39
55474;BME280;65220;52.214;0.116;2024-01-06T04:42:46;101116.41;;;15.40;28.46
55474;BME280;65220;52.214;0.116;2024-01-06T04:45:11;101119.50;;;15.52;28.46
55474;BME280;65220;52.214;0.116;2024-01-06T04:47:36;101118.12;;;15.90;28.32
55474;BME280;65220;52.214;0.116;2024-01-06T04:50:01;101121.29;;;15.77;28.41
55474;BME280;65220;52.214;0.116;2024-01-06T04:52:27;101121.26;;;15.76;28.37
55474;BME280;65220;52.214;0.116;2024-01-06T04:54:52;101127.09;;;15.49;28.48
55474;BME280;65220;52.214;0.116;2024-01-06T04:57:17;101125.72;;;16.17;28.14
55474;BME280;65220;52.214;0.116;2024-01-06T04:59:43;101128.00;;;16.01;28.30
55474;BME280;65220;52.214;0.116;2024-01-06T05:02:08;101127.84;;;16.05;28.27
55474;BME280;65220;52.214;0.116;2024-01-06T05:04:33;101130.71;;;16.03;28.17
55474;BME280;65220;52.214;0.116;2024-01-06T05:06:58;101134.38;;;15.81;28.30
55474;BME280;65220;52.214;0.116;2024-01-06T05:09:23;101134.59;;;15.64;28.33
55474;BME280;65220;52.214;0.116;2024-01-06T05:11:48;101138.73;;;15.77;28.35
55474;BME280;65220;52.214;0.116;2024-01-06T05:14:14;101137.42;;;15.99;28.30
55474;BME280;65220;52.214;0.116;2024-01-06T05:16:39;101145.75;;;15.93;28.35
55474;BME280;65220;52.214;0.116;2024-01-06T05:19:04;101142.35;;;15.86;28.38
55474;BME280;65220;52.214;0.116;2024-01-06T05:21:29;101144.51;;;15.90;28.40
55474;BME280;65220;52.214;0.116;2024-01-06T05:23:54;101147.28;;;16.35;28.16
55474;BME280;65220;52.214;0.116;2024-01-06T05:26:20;101150.91;;;16.15;28.14
55474;BME280;65220;52.214;0.116;2024-01-06T05:28:45;101149.93;;;15.92;28.22
55474;BME280;65220;52.214;0.116;2024-01-06T05:31:10;101155.84;;;15.71;28.26
55474;BME280;65220;52.214;0.116;2024-01-06T05:33:35;101157.64;;;16.49;28.14
55474;BME280;65220;52.214;0.116;2024-01-06T05:36:00;101159.89;;;16.43;28.21
55474;BME280;65220;52.214;0.116;2024-01-06T05:38:25;101164.60;;;16.29;28.10
55474;BME280;65220;52.214;0.116;2024-01-06T05:40:50;101174.84;;;16.02;28.33
55474;BME280;65220;52.214;0.116;2024-01-06T05:43:16;101174.45;;;16.41;28.19
55474;BME280;65220;52.214;0.116;2024-01-06T05:45:41;101179.21;;;16.44;28.13
55474;BME280;65220;52.214;0.116;2024-01-06T05:48:08;101188.14;;;16.03;28.28
55474;BME280;65220;52.214;0.116;2024-01-06T05:50:31;101187.69;;;16.95;27.85
55474;BME280;65220;52.214;0.116;2024-01-06T05:52:56;101198.95;;;16.34;28.25
55474;BME280;65220;52.214;0.116;2024-01-06T05:55:22;101197.98;;;15.98;28.44
55474;BME280;65220;52.214;0.116;2024-01-06T05:57:47;101202.61;;;16.17;28.36
55474;BME280;65220;52.214;0.116;2024-01-06T06:00:13;101210.59;;;16.14;28.36
55474;BME280;65220;52.214;0.116;2024-01-06T06:02:38;101213.52;;;16.03;28.39
55474;BME280;65220;52.214;0.116;2024-01-06T06:05:03;101218.85;;;16.01;28.40
55474;BME280;65220;52.214;0.116;2024-01-06T06:07:28;101223.05;;;15.68;28.51
55474;BME280;65220;52.214;0.116;2024-01-06T06:09:53;101225.80;;;15.93;28.53
55474;BME280;65220;52.214;0.116;2024-01-06T06:12:18;101227.17;;;16.13;28.21
55474;BME280;65220;52.214;0.116;2024-01-06T06:14:43;101230.57;;;16.39;28.18
55474;BME280;65220;52.214;0.116;2024-01-06T06:17:09;101231.29;;;15.91;28.44
55474;BME280;65220;52.214;0.116;2024-01-06T06:19:34;101239.15;;;15.73;28.54
55474;BME280;65220;52.214;0.116;2024-01-06T06:21:59;101240.65;;;15.94;28.30
55474;BME280;65220;52.214;0.116;2024-01-06T06:24:24;101241.17;;;15.46;28.73
55474;BME280;65220;52.214;0.116;2024-01-06T06:26:49;101244.51;;;15.82;28.60
55474;BME280;65220;52.214;0.116;2024-01-06T06:29:14;101243.19;;;15.89;28.43
55474;BME280;65220;52.214;0.116;2024-01-06T06:31:40;101249.04;;;16.21;28.37
55474;BME280;65220;52.214;0.116;2024-01-06T06:34:05;101253.63;;;15.98;28.44
55474;BME280;65220;52.214;0.116;2024-01-06T06:36:30;101260.71;;;15.81;28.48
55474;BME280;65220;52.214;0.116;2024-01-06T06:38:55;101264.22;;;15.61;28.52
55474;BME280;65220;52.214;0.116;2024-01-06T06:41:20;101267.56;;;15.88;28.59
55474;BME280;65220;52.214;0.116;2024-01-06T06:43:46;101266.13;;;15.65;28.65
55474;BME280;65220;52.214;0.116;2024-01-06T06:46:11;101271.63;;;15.75;28.55
55474;BME280;65220;52.214;0.116;2024-01-06T06:48:36;101272.16;;;15.89;28.54
55474;BME280;65220;52.214;0.116;2024-01-06T06:51:01;101274.94;;;15.56;28.72
55474;BME280;65220;52.214;0.116;2024-01-06T06:53:26;101278.63;;;15.99;28.49
55474;BME280;65220;52.214;0.116;2024-01-06T06:55:52;101283.17;;;16.18;28.41
55474;BME280;65220;52.214;0.116;2024-01-06T06:58:17;101284.70;;;15.63;28.41
55474;BME280;65220;52.214;0.116;2024-01-06T07:00:42;101287.16;;;15.84;28.45
55474;BME280;65220;52.214;0.116;2024-01-06T07:03:07;101292.47;;;16.46;28.16
55474;BME280;65220;52.214;0.116;2024-01-06T07:05:33;101299.18;;;15.82;28.30
55474;BME280;65220;52.214;0.116;2024-01-06T07:08:00;101305.21;;;15.85;28.30
55474;BME280;65220;52.214;0.116;2024-01-06T07:10:23;101312.07;;;15.96;28.34
55474;BME280;65220;52.214;0.116;2024-01-06T07:12:48;101317.49;;;15.95;28.33
55474;BME280;65220;52.214;0.116;2024-01-06T07:15:13;101321.42;;;15.79;28.44
55474;BME280;65220;52.214;0.116;2024-01-06T07:17:38;101326.01;;;16.15;28.27
55474;BME280;65220;52.214;0.116;2024-01-06T07:20:04;101329.48;;;16.30;28.17
55474;BME280;65220;52.214;0.116;2024-01-06T07:22:29;101333.88;;;15.85;28.32
55474;BME280;65220;52.214;0.116;2024-01-06T07:24:54;101337.81;;;15.71;28.27
55474;BME280;65220;52.214;0.116;2024-01-06T07:27:19;101343.19;;;16.03;28.32
55474;BME280;65220;52.214;0.116;2024-01-06T07:29:44;101349.66;;;16.30;28.19
55474;BME280;65220;52.214;0.116;2024-01-06T07:32:09;101351.26;;;15.87;28.28
55474;BME280;65220;52.214;0.116;2024-01-06T07:34:35;101355.25;;;15.62;28.36
55474;BME280;65220;52.214;0.116;2024-01-06T07:37:00;101359.73;;;15.61;28.44
55474;BME280;65220;52.214;0.116;2024-01-06T07:39:25;101362.22;;;16.00;28.28
55474;BME280;65220;52.214;0.116;2024-01-06T07:41:50;101365.28;;;15.56;28.42
55474;BME280;65220;52.214;0.116;2024-01-06T07:44:15;101367.84;;;15.83;28.34
55474;BME280;65220;52.214;0.116;2024-01-06T07:46:40;101371.23;;;15.76;28.32
55474;BME280;65220;52.214;0.116;2024-01-06T07:49:06;101373.28;;;15.66;28.33
55474;BME280;65220;52.214;0.116;2024-01-06T07:51:31;101376.59;;;15.79;28.42
55474;BME280;65220;52.214;0.116;2024-01-06T07:53:56;101379.32;;;15.83;28.43
55474;BME280;65220;52.214;0.116;2024-01-06T07:56:21;101384.53;;;15.81;28.49
55474;BME280;65220;52.214;0.116;2024-01-06T07:58:46;101387.50;;;15.86;28.19
55474;BME280;65220;52.214;0.116;2024-01-06T08:01:11;101392.25;;;15.70;28.39
55474;BME280;65220;52.214;0.116;2024-01-06T08:03:37;101399.46;;;15.76;28.42
55474;BME280;65220;52.214;0.116;2024-01-06T08:06:02;101402.60;;;15.91;28.23
55474;BME280;65220;52.214;0.116;2024-01-06T08:08:27;101407.48;;;15.66;28.23
55474;BME280;65220;52.214;0.116;2024-01-06T08:10:52;101407.41;;;15.69;28.40
55474;BME280;65220;52.214;0.116;2024-01-06T08:13:17;101410.00;;;15.64;28.33
55474;BME280;65220;52.214;0.116;2024-01-06T08:15:42;101412.82;;;13.63;29.51
55474;BME280;65220;52.214;0.116;2024-01-06T08:18:08;101413.90;;;15.55;28.69
55474;BME280;65220;52.214;0.116;2024-01-06T08:20:33;101418.31;;;15.59;28.79
55474;BME280;65220;52.214;0.116;2024-01-06T08:22:58;101422.49;;;14.80;28.92
55474;BME280;65220;52.214;0.116;2024-01-06T08:25:23;101426.14;;;15.38;28.64
55474;BME280;65220;52.214;0.116;2024-01-06T08:27:49;101425.46;;;15.71;28.64
55474;BME280;65220;52.214;0.116;2024-01-06T08:30:14;101425.39;;;15.63;28.66
55474;BME280;65220;52.214;0.116;2024-01-06T08:32:39;101430.58;;;15.63;28.43
55474;BME280;65220;52.214;0.116;2024-01-06T08:35:05;101434.73;;;15.77;28.41
55474;BME280;65220;52.214;0.116;2024-01-06T08:37:29;101436.44;;;15.68;28.41
55474;BME280;65220;52.214;0.116;2024-01-06T08:39:54;101443.19;;;15.38;28.56
55474;BME280;65220;52.214;0.116;2024-01-06T08:42:19;101443.13;;;15.40;28.44
55474;BME280;65220;52.214;0.116;2024-01-06T08:44:44;101452.82;;;15.48;28.53
55474;BME280;65220;52.214;0.116;2024-01-06T08:47:10;101453.13;;;15.28;28.44
55474;BME280;65220;52.214;0.116;2024-01-06T08:49:35;101455.26;;;15.57;28.36
55474;BME280;65220;52.214;0.116;2024-01-06T08:52:00;101463.81;;;15.66;28.31
55474;BME280;65220;52.214;0.116;2024-01-06T08:54:25;101469.95;;;15.59;28.36
55474;BME280;65220;52.214;0.116;2024-01-06T08:56:50;101472.31;;;15.59;28.37
55474;BME280;65220;52.214;0.116;2024-01-06T08:59:16;101474.14;;;15.60;28.40
55474;BME280;65220;52.214;0.116;2024-01-06T09:01:41;101477.38;;;15.79;28.38
55474;BME280;65220;52.214;0.116;2024-01-06T09:04:06;101480.14;;;15.44;28.36
55474;BME280;65220;52.214;0.116;2024-01-06T09:06:31;101482.72;;;15.58;28.32
55474;BME280;65220;52.214;0.116;2024-01-06T09:08:56;101486.18;;;15.66;28.30
55474;BME280;65220;52.214;0.116;2024-01-06T09:11:21;101487.17;;;15.70;28.35
55474;BME280;65220;52.214;0.116;2024-01-06T09:13:46;101491.63;;;15.45;28.23
55474;BME280;65220;52.214;0.116;2024-01-06T09:16:12;101498.92;;;15.50;28.42
55474;BME280;65220;52.214;0.116;2024-01-06T09:18:37;101502.20;;;15.52;28.31
55474;BME280;65220;52.214;0.116;2024-01-06T09:21:02;101504.49;;;15.28;28.36
55474;BME280;65220;52.214;0.116;2024-01-06T09:23:27;101510.09;;;15.17;28.36
55474;BME280;65220;52.214;0.116;2024-01-06T09:25:52;101517.55;;;15.21;28.43
55474;BME280;65220;52.214;0.116;2024-01-06T09:28:18;101523.73;;;15.28;28.30
55474;BME280;65220;52.214;0.116;2024-01-06T09:30:43;101529.90;;;15.32;28.44
55474;BME280;65220;52.214;0.116;2024-01-06T09:33:08;101535.06;;;15.54;28.20
55474;BME280;65220;52.214;0.116;2024-01-06T09:35:34;101538.80;;;15.33;28.22
55474;BME280;65220;52.214;0.116;2024-01-06T09:37:59;101544.02;;;15.17;28.31
55474;BME280;65220;52.214;0.116;2024-01-06T09:40:24;101549.44;;;15.19;28.39
55474;BME280;65220;52.214;0.116;2024-01-06T09:42:49;101547.84;;;15.37;28.22
55474;BME280;65220;52.214;0.116;2024-01-06T09:45:14;101552.08;;;15.23;28.33
55474;BME280;65220;52.214;0.116;2024-01-06T09:47:41;101554.46;;;15.26;28.22
55474;BME280;65220;52.214;0.116;2024-01-06T09:50:07;101556.26;;;15.28;28.40
55474;BME280;65220;52.214;0.116;2024-01-06T09:52:32;101557.67;;;15.49;28.37
55474;BME280;65220;52.214;0.116;2024-01-06T09:54:55;101560.45;;;15.18;28.42
55474;BME280;65220;52.214;0.116;2024-01-06T09:57:20;101565.27;;;15.29;28.42
55474;BME280;65220;52.214;0.116;2024-01-06T09:59:45;101567.87;;;14.82;28.47
55474;BME280;65220;52.214;0.116;2024-01-06T10:02:14;101574.26;;;15.37;28.32
55474;BME280;65220;52.214;0.116;2024-01-06T10:04:36;101576.61;;;15.01;28.41
55474;BME280;65220;52.214;0.116;2024-01-06T10:07:01;101579.51;;;15.28;28.24
55474;BME280;65220;52.214;0.116;2024-01-06T10:09:26;101582.51;;;15.24;28.26
55474;BME280;65220;52.214;0.116;2024-01-06T10:11:55;101585.40;;;15.19;28.30
55474;BME280;65220;52.214;0.116;2024-01-06T10:14:16;101589.10;;;15.27;28.21
55474;BME280;65220;52.214;0.116;2024-01-06T10:16:42;101594.34;;;15.54;28.05
55474;BME280;65220;52.214;0.116;2024-01-06T10:19:07;101597.00;;;15.15;28.39
55474;BME280;65220;52.214;0.116;2024-01-06T10:21:32;101596.76;;;15.43;28.08
55474;BME280;65220;52.214;0.116;2024-01-06T10:23:57;101599.14;;;15.39;28.13
55474;BME280;65220;52.214;0.116;2024-01-06T10:26:22;101600.28;;;15.23;28.20
55474;BME280;65220;52.214;0.116;2024-01-06T10:28:48;101603.87;;;15.11;28.19
55474;BME280;65220;52.214;0.116;2024-01-06T10:31:12;101604.33;;;15.00;28.12
55474;BME280;65220;52.214;0.116;2024-01-06T10:33:39;101602.25;;;15.02;28.24
55474;BME280;65220;52.214;0.116;2024-01-06T10:36:03;101603.64;;;15.33;28.22
55474;BME280;65220;52.214;0.116;2024-01-06T10:38:29;101606.96;;;15.04;28.24
55474;BME280;65220;52.214;0.116;2024-01-06T10:40:57;101605.83;;;14.91;28.34
55474;BME280;65220;52.214;0.116;2024-01-06T10:43:19;101610.49;;;15.38;28.15
55474;BME280;65220;52.214;0.116;2024-01-06T10:45:44;101612.23;;;15.40;28.11
55474;BME280;65220;52.214;0.116;2024-01-06T10:48:09;101612.08;;;15.52;28.15
55474;BME280;65220;52.214;0.116;2024-01-06T10:50:34;101613.27;;;15.33;28.06
55474;BME280;65220;52.214;0.116;2024-01-06T10:52:59;101614.38;;;15.09;28.32
55474;BME280;65220;52.214;0.116;2024-01-06T10:55:26;101615.28;;;15.37;28.02
55474;BME280;65220;52.214;0.116;2024-01-06T10:57:50;101616.05;;;15.40;28.17
55474;BME280;65220;52.214;0.116;2024-01-06T11:00:15;101618.50;;;15.32;28.06
55474;BME280;65220;52.214;0.116;2024-01-06T11:02:40;101618.17;;;15.43;27.97
55474;BME280;65220;52.214;0.116;2024-01-06T11:05:05;101618.98;;;15.69;27.87
55474;BME280;65220;52.214;0.116;2024-01-06T11:07:31;101617.69;;;15.16;28.16
55474;BME280;65220;52.214;0.116;2024-01-06T11:09:59;101616.24;;;15.48;27.94
55474;BME280;65220;52.214;0.116;2024-01-06T11:12:20;101617.58;;;15.50;28.02
55474;BME280;65220;52.214;0.116;2024-01-06T11:14:46;101615.16;;;15.37;28.02
55474;BME280;65220;52.214;0.116;2024-01-06T11:17:11;101618.26;;;15.28;28.06
55474;BME280;65220;52.214;0.116;2024-01-06T11:19:43;101618.70;;;15.44;27.97
55474;BME280;65220;52.214;0.116;2024-01-06T11:22:18;101618.87;;;15.64;27.91
55474;BME280;65220;52.214;0.116;2024-01-06T11:24:27;101620.30;;;15.43;28.17
55474;BME280;65220;52.214;0.116;2024-01-06T11:26:52;101615.18;;;15.47;28.07
55474;BME280;65220;52.214;0.116;2024-01-06T11:29:17;101617.09;;;15.59;28.16
55474;BME280;65220;52.214;0.116;2024-01-06T11:31:42;101617.51;;;15.24;28.20
55474;BME280;65220;52.214;0.116;2024-01-06T11:34:16;101621.09;;;15.48;28.17
55474;BME280;65220;52.214;0.116;2024-01-06T11:36:32;101622.81;;;15.00;28.31
55474;BME280;65220;52.214;0.116;2024-01-06T11:39:00;101621.86;;;15.17;28.32
55474;BME280;65220;52.214;0.116;2024-01-06T11:41:48;101625.10;;;15.12;28.48
55474;BME280;65220;52.214;0.116;2024-01-06T11:43:47;101624.73;;;14.81;28.52
55474;BME280;65220;52.214;0.116;2024-01-06T11:46:12;101625.80;;;15.17;28.34
55474;BME280;65220;52.214;0.116;2024-01-06T11:48:38;101630.62;;;15.21;28.39
55474;BME280;65220;52.214;0.116;2024-01-06T11:51:03;101627.80;;;14.89;28.53
55474;BME280;65220;52.214;0.116;2024-01-06T11:53:28;101627.94;;;15.00;28.38
55474;BME280;65220;52.214;0.116;2024-01-06T11:55:53;101630.27;;;14.55;28.39
55474;BME280;65220;52.214;0.116;2024-01-06T11:58:18;101634.51;;;14.95;28.29
55474;BME280;65220;52.214;0.116;2024-01-06T12:00:43;101634.15;;;15.46;28.22
55474;BME280;65220;52.214;0.116;2024-01-06T12:03:09;101636.72;;;15.07;28.27
55474;BME280;65220;52.214;0.116;2024-01-06T12:05:34;101636.84;;;15.21;28.25
55474;BME280;65220;52.214;0.116;2024-01-06T12:08:00;101635.73;;;15.06;28.39
55474;BME280;65220;52.214;0.116;2024-01-06T12:10:26;101637.71;;;15.40;28.22
55474;BME280;65220;52.214;0.116;2024-01-06T12:12:59;101636.88;;;14.98;28.32
55474;BME280;65220;52.214;0.116;2024-01-06T12:15:15;101633.65;;;15.38;28.14
55474;BME280;65220;52.214;0.116;2024-01-06T12:17:40;101634.50;;;15.32;28.27
55474;BME280;65220;52.214;0.116;2024-01-06T12:20:06;101628.91;;;15.00;28.18
55474;BME280;65220;52.214;0.116;2024-01-06T12:22:30;101631.81;;;15.31;28.25
55474;BME280;65220;52.214;0.116;2024-01-06T12:24:55;101631.54;;;15.19;28.34
55474;BME280;65220;52.214;0.116;2024-01-06T12:27:20;101633.22;;;15.26;28.35
55474;BME280;65220;52.214;0.116;2024-01-06T12:29:45;101634.63;;;14.65;28.45
55474;BME280;65220;52.214;0.116;2024-01-06T12:32:11;101635.30;;;14.81;28.46
55474;BME280;65220;52.214;0.116;2024-01-06T12:34:36;101636.53;;;14.85;28.35
55474;BME280;65220;52.214;0.116;2024-01-06T12:37:01;101638.76;;;14.89;28.47
55474;BME280;65220;52.214;0.116;2024-01-06T12:39:27;101635.82;;;15.10;28.24